createdAt,value
2019-02-19T00:00:09.567Z,0.00
2019-02-19T00:01:09.557Z,0.00
2019-02-19T00:02:09.546Z,0.00
2019-02-19T00:03:09.536Z,0.00
2019-02-19T00:04:09.524Z,0.00
2019-02-19T00:05:09.519Z,0.00
2019-02-19T00:06:09.503Z,0.00
2019-02-19T00:07:09.492Z,0.00
2019-02-19T00:08:09.481Z,0.00
2019-02-19T00:09:09.474Z,0.00
2019-02-19T00:10:09.460Z,0.00
2019-02-19T00:11:09.451Z,0.00
2019-02-19T00:12:09.438Z,0.00
2019-02-19T00:13:09.428Z,0.00
2019-02-19T00:14:09.471Z,0.00
2019-02-19T00:15:09.413Z,0.00
2019-02-19T00:16:09.396Z,0.00
2019-02-19T00:17:09.385Z,0.00
2019-02-19T00:18:09.378Z,0.00
2019-02-19T00:19:09.364Z,0.00
2019-02-19T00:20:09.357Z,0.00
2019-02-19T00:21:09.342Z,0.00
2019-02-19T00:22:09.331Z,0.00
2019-02-19T00:23:09.332Z,0.00
2019-02-19T00:24:09.309Z,0.00
2019-02-19T00:25:09.299Z,0.00
2019-02-19T00:26:09.288Z,0.00
2019-02-19T00:27:09.278Z,0.00
2019-02-19T00:28:09.266Z,0.00
2019-02-19T00:29:09.257Z,0.00
2019-02-19T00:30:09.247Z,0.00
2019-02-19T00:31:09.235Z,0.00
2019-02-19T00:32:09.223Z,0.00
2019-02-19T00:33:09.213Z,0.00
2019-02-19T00:34:09.203Z,0.00
2019-02-19T00:35:09.193Z,0.00
2019-02-19T00:36:09.181Z,0.00
2019-02-19T00:37:09.169Z,0.00
2019-02-19T00:38:09.158Z,0.00
2019-02-19T00:39:09.148Z,0.00
2019-02-19T00:40:09.136Z,0.00
2019-02-19T00:41:09.128Z,0.00
2019-02-19T00:42:09.116Z,0.00
2019-02-19T00:43:09.104Z,0.00
2019-02-19T00:44:09.143Z,0.00
2019-02-19T00:45:16.486Z,0.00
2019-02-19T00:46:09.072Z,0.00
2019-02-19T00:47:09.062Z,0.00
2019-02-19T00:48:09.050Z,0.00
2019-02-19T00:49:09.040Z,0.00
2019-02-19T00:50:09.028Z,0.00
2019-02-19T00:51:09.017Z,0.00
2019-02-19T00:52:09.006Z,0.00
2019-02-19T00:53:08.995Z,0.00
2019-02-19T00:54:08.989Z,0.00
2019-02-19T00:55:08.974Z,0.00
2019-02-19T00:56:08.962Z,0.00
2019-02-19T00:57:08.951Z,0.00
2019-02-19T00:58:08.940Z,0.00
2019-02-19T00:59:08.930Z,0.00
2019-02-19T01:00:08.930Z,0.00
2019-02-19T01:01:08.907Z,0.00
2019-02-19T01:02:08.896Z,0.00
2019-02-19T01:03:08.886Z,0.00
2019-02-19T01:04:08.875Z,0.00
2019-02-19T01:05:08.863Z,0.00
2019-02-19T01:06:08.853Z,0.00
2019-02-19T01:07:08.843Z,0.00
2019-02-19T01:08:08.830Z,0.00
2019-02-19T01:09:08.819Z,0.00
2019-02-19T01:10:08.808Z,0.00
2019-02-19T01:11:08.798Z,0.00
2019-02-19T01:12:08.787Z,0.00
2019-02-19T01:13:08.775Z,0.00
2019-02-19T01:14:08.764Z,0.00
2019-02-19T01:15:08.804Z,0.00
2019-02-19T01:16:10.549Z,0.00
2019-02-19T01:17:08.731Z,0.00
2019-02-19T01:18:08.721Z,0.00
2019-02-19T01:19:08.709Z,0.00
2019-02-19T01:20:08.698Z,0.00
2019-02-19T01:21:08.687Z,0.00
2019-02-19T01:22:08.707Z,0.00
2019-02-19T01:23:08.666Z,0.00
2019-02-19T01:24:08.654Z,0.00
2019-02-19T01:25:08.643Z,0.00
2019-02-19T01:26:08.633Z,0.00
2019-02-19T01:27:08.622Z,0.00
2019-02-19T01:28:08.610Z,0.00
2019-02-19T01:29:08.599Z,0.00
2019-02-19T01:30:08.593Z,0.00
2019-02-19T01:31:08.579Z,0.00
2019-02-19T01:32:08.567Z,0.00
2019-02-19T01:33:08.556Z,0.00
2019-02-19T01:34:08.545Z,0.00
2019-02-19T01:35:08.536Z,0.00
2019-02-19T01:36:08.523Z,0.00
2019-02-19T01:37:08.512Z,0.00
2019-02-19T01:38:08.501Z,0.00
2019-02-19T01:39:08.494Z,0.00
2019-02-19T01:40:08.479Z,0.00
2019-02-19T01:41:08.475Z,0.00
2019-02-19T01:42:08.458Z,0.00
2019-02-19T01:43:08.449Z,0.00
2019-02-19T01:44:08.436Z,0.00
2019-02-19T01:45:08.425Z,0.00
2019-02-19T01:46:08.415Z,0.00
2019-02-19T01:47:08.405Z,0.00
2019-02-19T01:48:08.393Z,0.00
2019-02-19T01:49:08.382Z,0.00
2019-02-19T01:50:08.371Z,0.00
2019-02-19T01:51:08.360Z,0.00
2019-02-19T01:52:08.348Z,0.00
2019-02-19T01:53:08.338Z,0.00
2019-02-19T01:54:08.328Z,0.00
2019-02-19T01:55:08.319Z,0.00
2019-02-19T01:56:08.305Z,0.00
2019-02-19T01:57:08.295Z,0.00
2019-02-19T01:58:08.284Z,0.00
2019-02-19T01:59:08.273Z,0.00
2019-02-19T02:00:08.262Z,0.00
2019-02-19T02:01:08.251Z,0.00
2019-02-19T02:02:08.241Z,0.00
2019-02-19T02:03:08.231Z,0.00
2019-02-19T02:04:08.218Z,0.00
2019-02-19T02:05:08.208Z,0.00
2019-02-19T02:06:08.197Z,0.00
2019-02-19T02:07:08.187Z,0.00
2019-02-19T02:08:08.178Z,0.00
2019-02-19T02:09:08.165Z,0.00
2019-02-19T02:10:08.154Z,0.00
2019-02-19T02:11:08.143Z,0.00
2019-02-19T02:12:08.132Z,0.00
2019-02-19T02:13:08.120Z,0.00
2019-02-19T02:14:08.110Z,0.00
2019-02-19T02:15:08.099Z,0.00
2019-02-19T02:16:08.088Z,0.00
2019-02-19T02:17:08.077Z,0.00
2019-02-19T02:18:08.067Z,0.00
2019-02-19T02:19:08.056Z,0.00
2019-02-19T02:20:08.045Z,0.00
2019-02-19T02:21:08.034Z,0.00
2019-02-19T02:22:08.024Z,0.00
2019-02-19T02:23:08.014Z,0.00
2019-02-19T02:24:08.002Z,0.00
2019-02-19T02:25:07.991Z,0.00
2019-02-19T02:26:07.985Z,0.00
2019-02-19T02:27:07.970Z,0.00
2019-02-19T02:28:07.959Z,0.00
2019-02-19T02:29:07.949Z,0.00
2019-02-19T02:30:07.939Z,0.00
2019-02-19T02:31:07.929Z,0.00
2019-02-19T02:32:07.915Z,0.00
2019-02-19T02:33:07.905Z,0.00
2019-02-19T02:34:07.895Z,0.00
2019-02-19T02:35:07.899Z,0.00
2019-02-19T02:36:07.874Z,0.00
2019-02-19T02:37:07.861Z,0.00
2019-02-19T02:38:07.851Z,0.00
2019-02-19T02:39:07.846Z,0.00
2019-02-19T02:40:07.830Z,0.00
2019-02-19T02:41:07.820Z,0.00
2019-02-19T02:42:07.809Z,0.00
2019-02-19T02:43:07.799Z,0.00
2019-02-19T02:44:07.786Z,0.00
2019-02-19T02:45:07.781Z,0.00
2019-02-19T02:46:07.822Z,0.00
2019-02-19T02:47:07.761Z,0.00
2019-02-19T02:48:07.745Z,0.00
2019-02-19T02:49:07.733Z,0.00
2019-02-19T02:50:07.724Z,0.00
2019-02-19T02:51:07.724Z,0.00
2019-02-19T02:52:07.700Z,0.00
2019-02-19T02:53:07.692Z,0.00
2019-02-19T02:54:07.687Z,0.00
2019-02-19T02:55:07.677Z,0.00
2019-02-19T02:56:07.657Z,0.00
2019-02-19T02:57:07.647Z,0.00
2019-02-19T02:58:07.637Z,0.00
2019-02-19T02:59:07.627Z,0.00
2019-02-19T03:00:07.615Z,0.00
2019-02-19T03:01:07.603Z,0.00
2019-02-19T03:02:07.592Z,0.00
2019-02-19T03:03:07.582Z,0.00
2019-02-19T03:04:07.571Z,0.00
2019-02-19T03:05:07.561Z,0.00
2019-02-19T03:06:07.548Z,0.00
2019-02-19T03:07:07.543Z,0.00
2019-02-19T03:08:07.526Z,0.00
2019-02-19T03:09:07.516Z,0.00
2019-02-19T03:10:07.504Z,0.00
2019-02-19T03:11:07.493Z,0.00
2019-02-19T03:12:07.481Z,0.00
2019-02-19T03:13:07.470Z,0.00
2019-02-19T03:14:07.460Z,0.00
2019-02-19T03:15:07.448Z,0.00
2019-02-19T03:16:07.441Z,0.00
2019-02-19T03:17:07.425Z,0.00
2019-02-19T03:18:07.425Z,0.00
2019-02-19T03:19:07.406Z,0.00
2019-02-19T03:20:07.391Z,0.00
2019-02-19T03:21:07.380Z,0.00
2019-02-19T03:22:07.370Z,0.00
2019-02-19T03:23:07.360Z,0.00
2019-02-19T03:24:07.346Z,0.00
2019-02-19T03:25:07.334Z,0.00
2019-02-19T03:26:07.323Z,0.00
2019-02-19T03:27:07.312Z,0.00
2019-02-19T03:28:07.299Z,0.00
2019-02-19T03:29:07.289Z,0.00
2019-02-19T03:30:07.300Z,0.00
2019-02-19T03:31:07.266Z,0.00
2019-02-19T03:32:07.258Z,0.00
2019-02-19T03:33:07.244Z,0.00
2019-02-19T03:34:07.232Z,0.00
2019-02-19T03:35:07.224Z,0.00
2019-02-19T03:36:07.207Z,0.00
2019-02-19T03:37:07.198Z,0.00
2019-02-19T03:38:07.185Z,0.00
2019-02-19T03:39:07.174Z,0.00
2019-02-19T03:40:07.786Z,0.00
2019-02-19T03:41:07.151Z,0.00
2019-02-19T03:42:07.139Z,0.00
2019-02-19T03:43:07.127Z,0.00
2019-02-19T03:44:07.115Z,0.00
2019-02-19T03:45:07.108Z,0.00
2019-02-19T03:46:12.192Z,0.00
2019-02-19T03:47:07.082Z,0.00
2019-02-19T03:48:07.073Z,0.00
2019-02-19T03:49:07.063Z,0.00
2019-02-19T03:50:07.046Z,0.00
2019-02-19T03:51:07.035Z,0.00
2019-02-19T03:52:07.072Z,0.00
2019-02-19T03:53:07.011Z,0.00
2019-02-19T03:54:07.000Z,0.00
2019-02-19T03:55:06.995Z,0.00
2019-02-19T03:56:06.977Z,0.00
2019-02-19T03:57:06.965Z,0.00
2019-02-19T03:58:06.954Z,0.00
2019-02-19T03:59:06.941Z,0.00
2019-02-19T04:00:06.931Z,0.00
2019-02-19T04:01:06.918Z,0.00
2019-02-19T04:02:06.909Z,0.00
2019-02-19T04:03:06.895Z,0.00
2019-02-19T04:04:06.883Z,0.00
2019-02-19T04:05:06.881Z,0.00
2019-02-19T04:06:06.860Z,0.00
2019-02-19T04:07:06.848Z,0.00
2019-02-19T04:08:06.836Z,0.00
2019-02-19T04:09:06.827Z,0.00
2019-02-19T04:10:06.814Z,0.00
2019-02-19T04:11:06.801Z,0.00
2019-02-19T04:12:06.789Z,0.00
2019-02-19T04:13:06.778Z,0.00
2019-02-19T04:14:06.766Z,0.00
2019-02-19T04:15:06.758Z,0.00
2019-02-19T04:16:06.743Z,0.00
2019-02-19T04:17:06.732Z,0.00
2019-02-19T04:18:06.727Z,0.00
2019-02-19T04:19:06.714Z,0.00
2019-02-19T04:20:06.696Z,0.00
2019-02-19T04:21:06.687Z,0.00
2019-02-19T04:22:06.672Z,0.00
2019-02-19T04:23:06.665Z,0.00
2019-02-19T04:24:06.649Z,0.00
2019-02-19T04:25:06.637Z,0.00
2019-02-19T04:26:06.627Z,0.00
2019-02-19T04:27:06.615Z,0.00
2019-02-19T04:28:06.604Z,0.00
2019-02-19T04:29:06.591Z,0.00
2019-02-19T04:30:06.580Z,0.00
2019-02-19T04:31:06.567Z,0.00
2019-02-19T04:32:06.576Z,0.00
2019-02-19T04:33:06.546Z,0.00
2019-02-19T04:34:06.533Z,0.00
2019-02-19T04:35:06.521Z,0.00
2019-02-19T04:36:06.510Z,0.00
2019-02-19T04:37:06.498Z,0.00
2019-02-19T04:38:06.534Z,0.00
2019-02-19T04:39:06.476Z,0.00
2019-02-19T04:40:06.463Z,0.00
2019-02-19T04:41:06.452Z,0.00
2019-02-19T04:42:06.441Z,0.00
2019-02-19T04:43:06.430Z,0.00
2019-02-19T04:44:06.425Z,0.00
2019-02-19T04:45:06.406Z,0.00
2019-02-19T04:46:06.426Z,0.00
2019-02-19T04:47:06.383Z,0.00
2019-02-19T04:48:06.370Z,0.00
2019-02-19T04:49:06.365Z,0.00
2019-02-19T04:50:06.355Z,0.00
2019-02-19T04:51:06.348Z,0.00
2019-02-19T04:52:06.325Z,0.00
2019-02-19T04:53:06.313Z,0.00
2019-02-19T04:54:06.301Z,0.00
2019-02-19T04:55:06.288Z,0.00
2019-02-19T04:56:06.276Z,0.00
2019-02-19T04:57:06.267Z,0.00
2019-02-19T04:58:06.266Z,0.00
2019-02-19T04:59:06.243Z,0.00
2019-02-19T05:00:06.230Z,0.00
2019-02-19T05:01:06.219Z,0.00
2019-02-19T05:02:06.207Z,0.00
2019-02-19T05:03:06.195Z,0.00
2019-02-19T05:04:06.189Z,0.00
2019-02-19T05:05:06.171Z,0.00
2019-02-19T05:06:06.162Z,0.00
2019-02-19T05:07:06.150Z,0.00
2019-02-19T05:08:06.136Z,0.00
2019-02-19T05:09:06.125Z,0.00
2019-02-19T05:10:06.114Z,0.00
2019-02-19T05:11:06.102Z,0.00
2019-02-19T05:12:06.093Z,0.00
2019-02-19T05:13:06.079Z,0.00
2019-02-19T05:14:06.067Z,0.00
2019-02-19T05:15:06.056Z,0.00
2019-02-19T05:16:06.043Z,0.00
2019-02-19T05:17:06.033Z,0.00
2019-02-19T05:18:06.023Z,0.00
2019-02-19T05:19:06.009Z,0.00
2019-02-19T05:20:05.998Z,0.00
2019-02-19T05:21:05.987Z,0.00
2019-02-19T05:22:05.975Z,0.00
2019-02-19T05:23:07.504Z,0.00
2019-02-19T05:24:05.959Z,0.00
2019-02-19T05:25:05.940Z,0.00
2019-02-19T05:26:05.930Z,0.00
2019-02-19T05:27:05.918Z,0.00
2019-02-19T05:28:05.905Z,0.00
2019-02-19T05:29:05.894Z,0.00
2019-02-19T05:30:05.882Z,0.00
2019-02-19T05:31:05.874Z,0.00
2019-02-19T05:32:05.860Z,0.00
2019-02-19T05:33:05.850Z,0.00
2019-02-19T05:34:05.837Z,0.00
2019-02-19T05:35:05.829Z,0.00
2019-02-19T05:36:05.820Z,0.00
2019-02-19T05:37:05.812Z,0.00
2019-02-19T05:38:05.796Z,0.00
2019-02-19T05:39:05.787Z,0.00
2019-02-19T05:40:05.767Z,0.00
2019-02-19T05:41:05.755Z,0.00
2019-02-19T05:42:05.743Z,0.00
2019-02-19T05:43:05.731Z,0.00
2019-02-19T05:44:05.720Z,0.00
2019-02-19T05:45:05.724Z,0.00
2019-02-19T05:46:05.701Z,0.00
2019-02-19T05:47:05.685Z,0.00
2019-02-19T05:48:05.674Z,0.00
2019-02-19T05:49:05.663Z,0.00
2019-02-19T05:50:05.650Z,0.00
2019-02-19T05:51:05.640Z,0.00
2019-02-19T05:52:05.627Z,0.00
2019-02-19T05:53:05.620Z,0.00
2019-02-19T05:54:05.604Z,0.00
2019-02-19T05:55:05.593Z,0.00
2019-02-19T05:56:05.580Z,0.00
2019-02-19T05:57:05.570Z,0.00
2019-02-19T05:58:05.560Z,0.00
2019-02-19T05:59:05.548Z,0.00
2019-02-19T06:00:05.533Z,0.00
2019-02-19T06:01:05.523Z,0.00
2019-02-19T06:02:05.512Z,0.00
2019-02-19T06:03:05.499Z,0.00
2019-02-19T06:04:05.487Z,0.00
2019-02-19T06:05:05.904Z,0.00
2019-02-19T06:06:05.465Z,0.00
2019-02-19T06:07:05.455Z,0.00
2019-02-19T06:08:05.447Z,0.00
2019-02-19T06:09:05.430Z,0.00
2019-02-19T06:10:05.418Z,0.00
2019-02-19T06:11:05.408Z,0.00
2019-02-19T06:12:05.394Z,0.00
2019-02-19T06:13:05.383Z,0.00
2019-02-19T06:14:05.372Z,0.00
2019-02-19T06:15:05.362Z,0.00
2019-02-19T06:16:05.348Z,0.00
2019-02-19T06:17:05.341Z,0.00
2019-02-19T06:18:05.324Z,0.00
2019-02-19T06:19:05.324Z,0.00
2019-02-19T06:20:05.301Z,0.00
2019-02-19T06:21:05.291Z,0.00
2019-02-19T06:22:05.279Z,0.00
2019-02-19T06:23:05.267Z,0.00
2019-02-19T06:24:05.258Z,0.00
2019-02-19T06:25:05.310Z,0.00
2019-02-19T06:26:05.243Z,0.00
2019-02-19T06:27:05.220Z,0.00
2019-02-19T06:28:05.208Z,0.00
2019-02-19T06:29:05.222Z,0.00
2019-02-19T06:30:05.185Z,0.00
2019-02-19T06:31:05.173Z,0.00
2019-02-19T06:32:05.161Z,0.00
2019-02-19T06:33:05.149Z,0.00
2019-02-19T06:34:05.137Z,0.00
2019-02-19T06:35:05.127Z,0.00
2019-02-19T06:36:05.114Z,0.00
2019-02-19T06:37:05.106Z,0.00
2019-02-19T06:38:05.092Z,0.00
2019-02-19T06:39:05.079Z,0.00
2019-02-19T06:40:05.067Z,5.63
2019-02-19T06:41:05.055Z,5.63
2019-02-19T06:42:05.043Z,5.63
2019-02-19T06:43:05.032Z,5.63
2019-02-19T06:44:05.020Z,5.63
2019-02-19T06:45:05.011Z,5.63
2019-02-19T06:46:04.997Z,5.63
2019-02-19T06:47:06.835Z,5.63
2019-02-19T06:48:04.978Z,11.25
2019-02-19T06:49:04.961Z,11.25
2019-02-19T06:50:04.950Z,11.25
2019-02-19T06:51:04.939Z,11.25
2019-02-19T06:52:04.927Z,11.25
2019-02-19T06:53:04.913Z,11.25
2019-02-19T06:54:04.902Z,11.25
2019-02-19T06:55:04.894Z,11.25
2019-02-19T06:56:04.921Z,11.25
2019-02-19T06:57:04.871Z,11.25
2019-02-19T06:58:04.855Z,11.25
2019-02-19T06:59:04.845Z,11.25
2019-02-19T07:00:04.832Z,11.25
2019-02-19T07:01:04.820Z,11.25
2019-02-19T07:02:04.811Z,5.63
2019-02-19T07:03:04.797Z,5.63
2019-02-19T07:04:04.787Z,11.25
2019-02-19T07:05:04.773Z,11.25
2019-02-19T07:06:04.762Z,11.25
2019-02-19T07:07:04.756Z,11.25
2019-02-19T07:08:04.738Z,11.25
2019-02-19T07:09:04.727Z,11.25
2019-02-19T07:10:04.716Z,11.25
2019-02-19T07:11:04.707Z,11.25
2019-02-19T07:12:04.692Z,16.88
2019-02-19T07:13:04.681Z,16.88
2019-02-19T07:14:04.670Z,16.88
2019-02-19T07:15:04.658Z,22.50
2019-02-19T07:16:04.646Z,16.88
2019-02-19T07:17:04.637Z,16.88
2019-02-19T07:18:04.623Z,16.88
2019-02-19T07:19:04.612Z,16.88
2019-02-19T07:20:04.600Z,16.88
2019-02-19T07:21:04.589Z,22.50
2019-02-19T07:22:04.578Z,22.50
2019-02-19T07:23:04.566Z,22.50
2019-02-19T07:24:04.823Z,22.50
2019-02-19T07:25:04.543Z,22.50
2019-02-19T07:26:04.533Z,28.13
2019-02-19T07:27:04.520Z,28.13
2019-02-19T07:28:04.509Z,28.13
2019-02-19T07:29:04.497Z,28.13
2019-02-19T07:30:04.486Z,28.13
2019-02-19T07:31:04.482Z,22.50
2019-02-19T07:32:04.465Z,28.13
2019-02-19T07:33:04.451Z,39.38
2019-02-19T07:34:04.440Z,50.63
2019-02-19T07:35:04.429Z,39.38
2019-02-19T07:36:04.417Z,28.13
2019-02-19T07:37:04.408Z,28.13
2019-02-19T07:38:04.394Z,28.13
2019-02-19T07:39:04.383Z,33.75
2019-02-19T07:40:04.378Z,39.38
2019-02-19T07:41:04.360Z,39.38
2019-02-19T07:42:04.349Z,50.63
2019-02-19T07:43:04.337Z,61.88
2019-02-19T07:44:04.325Z,39.38
2019-02-19T07:45:04.315Z,61.88
2019-02-19T07:46:04.302Z,61.88
2019-02-19T07:47:04.292Z,45.00
2019-02-19T07:48:04.279Z,39.38
2019-02-19T07:49:04.267Z,33.75
2019-02-19T07:50:04.256Z,28.13
2019-02-19T07:51:04.245Z,39.38
2019-02-19T07:52:04.235Z,50.63
2019-02-19T07:53:04.221Z,84.38
2019-02-19T07:54:04.214Z,78.75
2019-02-19T07:55:04.202Z,45.00
2019-02-19T07:56:04.190Z,45.00
2019-02-19T07:57:04.180Z,45.00
2019-02-19T07:58:04.165Z,61.88
2019-02-19T07:59:04.154Z,106.88
2019-02-19T08:00:04.141Z,118.13
2019-02-19T08:01:04.131Z,118.13
2019-02-19T08:02:04.132Z,95.63
2019-02-19T08:03:05.061Z,84.38
2019-02-19T08:04:04.096Z,73.13
2019-02-19T08:05:04.085Z,84.38
2019-02-19T08:06:04.074Z,90.00
2019-02-19T08:07:04.071Z,112.50
2019-02-19T08:08:04.051Z,129.38
2019-02-19T08:09:04.039Z,135.00
2019-02-19T08:10:04.028Z,140.63
2019-02-19T08:11:04.017Z,180.00
2019-02-19T08:12:04.004Z,213.75
2019-02-19T08:13:03.994Z,225.00
2019-02-19T08:14:03.982Z,247.50
2019-02-19T08:15:03.973Z,286.88
2019-02-19T08:16:03.960Z,320.63
2019-02-19T08:17:03.949Z,315.00
2019-02-19T08:18:03.938Z,309.38
2019-02-19T08:19:03.927Z,309.38
2019-02-19T08:20:03.917Z,253.13
2019-02-19T08:21:03.905Z,236.25
2019-02-19T08:22:03.896Z,230.63
2019-02-19T08:23:03.882Z,208.13
2019-02-19T08:24:03.870Z,185.63
2019-02-19T08:25:03.862Z,163.13
2019-02-19T08:26:03.849Z,157.50
2019-02-19T08:27:03.838Z,180.00
2019-02-19T08:28:03.827Z,180.00
2019-02-19T08:29:13.272Z,174.38
2019-02-19T08:30:03.812Z,180.00
2019-02-19T08:31:03.794Z,208.13
2019-02-19T08:32:03.784Z,365.63
2019-02-19T08:33:03.773Z,247.50
2019-02-19T08:34:03.760Z,405.00
2019-02-19T08:35:03.749Z,405.00
2019-02-19T08:36:03.738Z,405.00
2019-02-19T08:37:03.730Z,371.25
2019-02-19T08:38:03.720Z,354.38
2019-02-19T08:39:03.708Z,376.88
2019-02-19T08:40:03.697Z,399.38
2019-02-19T08:41:03.688Z,416.25
2019-02-19T08:42:03.679Z,410.63
2019-02-19T08:43:03.673Z,410.63
2019-02-19T08:44:03.664Z,399.38
2019-02-19T08:45:03.650Z,382.50
2019-02-19T08:46:03.642Z,388.13
2019-02-19T08:47:03.632Z,450.00
2019-02-19T08:48:03.622Z,568.13
2019-02-19T08:49:03.614Z,905.63
2019-02-19T08:50:03.609Z,1080.00
2019-02-19T08:51:03.599Z,1012.50
2019-02-19T08:52:03.596Z,849.38
2019-02-19T08:53:03.581Z,686.25
2019-02-19T08:54:03.576Z,590.63
2019-02-19T08:55:03.572Z,483.75
2019-02-19T08:56:03.591Z,438.75
2019-02-19T08:57:03.548Z,472.50
2019-02-19T08:58:03.541Z,562.50
2019-02-19T08:59:03.532Z,770.63
2019-02-19T09:00:03.523Z,900.00
2019-02-19T09:01:03.521Z,1068.75
2019-02-19T09:02:03.515Z,1164.38
2019-02-19T09:03:03.499Z,1170.00
2019-02-19T09:04:03.498Z,1164.38
2019-02-19T09:05:03.484Z,1170.00
2019-02-19T09:06:03.477Z,1198.13
2019-02-19T09:07:03.471Z,1170.00
2019-02-19T09:08:03.465Z,1136.25
2019-02-19T09:09:03.457Z,1136.25
2019-02-19T09:10:03.452Z,1192.50
2019-02-19T09:11:03.446Z,1175.63
2019-02-19T09:12:03.446Z,1170.00
2019-02-19T09:13:03.436Z,1141.88
2019-02-19T09:14:03.432Z,1164.38
2019-02-19T09:15:03.427Z,1164.38
2019-02-19T09:16:03.422Z,1181.25
2019-02-19T09:17:03.415Z,1147.50
2019-02-19T09:18:03.412Z,1147.50
2019-02-19T09:19:03.408Z,1192.50
2019-02-19T09:20:03.402Z,1215.00
2019-02-19T09:21:03.399Z,1198.13
2019-02-19T09:22:03.394Z,1164.38
2019-02-19T09:23:03.390Z,1125.00
2019-02-19T09:24:09.259Z,1175.63
2019-02-19T09:25:03.381Z,1215.00
2019-02-19T09:26:03.378Z,1243.13
2019-02-19T09:27:03.374Z,1181.25
2019-02-19T09:28:03.376Z,1108.13
2019-02-19T09:29:03.365Z,1181.25
2019-02-19T09:30:03.362Z,1181.25
2019-02-19T09:31:03.362Z,1164.38
2019-02-19T09:32:03.357Z,1147.50
2019-02-19T09:33:03.351Z,1175.63
2019-02-19T09:34:03.350Z,1203.75
2019-02-19T09:35:03.344Z,1220.63
2019-02-19T09:36:03.339Z,1186.88
2019-02-19T09:37:03.336Z,1181.25
2019-02-19T09:38:03.334Z,1192.50
2019-02-19T09:39:03.367Z,1209.38
2019-02-19T09:40:03.324Z,1271.25
2019-02-19T09:41:03.322Z,1175.63
2019-02-19T09:42:03.318Z,1220.63
2019-02-19T09:43:03.314Z,1220.63
2019-02-19T09:44:03.309Z,1226.25
2019-02-19T09:45:03.307Z,1265.63
2019-02-19T09:46:03.304Z,1282.50
2019-02-19T09:47:03.299Z,1243.13
2019-02-19T09:48:03.295Z,1248.75
2019-02-19T09:49:03.292Z,348.75
2019-02-19T09:50:03.288Z,399.38
2019-02-19T09:51:03.285Z,1440.00
2019-02-19T09:52:03.279Z,1338.75
2019-02-19T09:53:03.277Z,1389.38
2019-02-19T09:54:03.271Z,1383.75
2019-02-19T09:55:03.267Z,326.25
2019-02-19T09:56:03.264Z,1288.13
2019-02-19T09:57:03.258Z,1366.88
2019-02-19T09:58:03.255Z,1310.63
2019-02-19T09:59:03.252Z,1293.75
2019-02-19T10:00:03.249Z,1316.25
2019-02-19T10:01:03.249Z,1293.75
2019-02-19T10:02:03.241Z,1299.38
2019-02-19T10:03:03.250Z,753.75
2019-02-19T10:04:03.234Z,1338.75
2019-02-19T10:05:03.232Z,556.88
2019-02-19T10:06:03.235Z,1338.75
2019-02-19T10:07:03.245Z,1361.25
2019-02-19T10:08:03.227Z,1316.25
2019-02-19T10:09:03.219Z,1321.88
2019-02-19T10:10:03.217Z,1198.13
2019-02-19T10:11:03.214Z,1305.00
2019-02-19T10:12:03.210Z,1271.25
2019-02-19T10:13:03.207Z,1327.50
2019-02-19T10:14:03.211Z,1355.63
2019-02-19T10:15:03.306Z,1361.25
2019-02-19T10:16:03.199Z,1361.25
2019-02-19T10:17:03.203Z,1406.25
2019-02-19T10:18:10.106Z,1411.88
2019-02-19T10:19:03.193Z,1389.38
2019-02-19T10:20:03.189Z,1406.25
2019-02-19T10:21:03.188Z,1411.88
2019-02-19T10:22:03.185Z,1406.25
2019-02-19T10:23:03.183Z,1389.38
2019-02-19T10:24:03.180Z,1400.63
2019-02-19T10:25:03.180Z,1338.75
2019-02-19T10:26:03.176Z,1372.50
2019-02-19T10:27:03.174Z,1411.88
2019-02-19T10:28:03.200Z,1417.50
2019-02-19T10:29:03.169Z,1400.63
2019-02-19T10:30:03.168Z,1400.63
2019-02-19T10:31:03.168Z,1406.25
2019-02-19T10:32:03.164Z,1406.25
2019-02-19T10:33:03.163Z,1423.13
2019-02-19T10:34:03.161Z,1456.88
2019-02-19T10:35:03.159Z,1440.00
2019-02-19T10:36:03.158Z,1428.75
2019-02-19T10:37:03.155Z,1417.50
2019-02-19T10:38:03.155Z,1378.13
2019-02-19T10:39:03.152Z,1372.50
2019-02-19T10:40:03.151Z,1406.25
2019-02-19T10:41:03.148Z,1411.88
2019-02-19T10:42:03.146Z,1411.88
2019-02-19T10:43:03.144Z,1417.50
2019-02-19T10:44:03.141Z,1406.25
2019-02-19T10:45:03.140Z,1389.38
2019-02-19T10:46:03.138Z,1395.00
2019-02-19T10:47:03.139Z,1411.88
2019-02-19T10:48:03.133Z,1411.88
2019-02-19T10:49:03.134Z,1451.25
2019-02-19T10:50:03.134Z,1451.25
2019-02-19T10:51:03.127Z,1468.13
2019-02-19T10:52:03.126Z,1473.75
2019-02-19T10:53:03.125Z,1456.88
2019-02-19T10:54:03.120Z,1462.50
2019-02-19T10:55:03.118Z,1451.25
2019-02-19T10:56:03.119Z,1473.75
2019-02-19T10:57:03.115Z,1462.50
2019-02-19T10:58:03.111Z,1456.88
2019-02-19T10:59:03.109Z,1462.50
2019-02-19T11:00:03.106Z,1524.38
2019-02-19T11:01:03.111Z,1524.38
2019-02-19T11:02:03.103Z,1541.25
2019-02-19T11:03:03.099Z,1479.38
2019-02-19T11:04:03.100Z,1518.75
2019-02-19T11:05:03.097Z,1496.25
2019-02-19T11:06:03.093Z,1524.38
2019-02-19T11:07:03.091Z,1513.13
2019-02-19T11:08:03.087Z,1513.13
2019-02-19T11:09:03.085Z,1580.63
2019-02-19T11:10:03.100Z,1603.13
2019-02-19T11:11:03.082Z,1608.75
2019-02-19T11:12:03.078Z,1355.63
2019-02-19T11:13:03.076Z,1496.25
2019-02-19T11:14:03.073Z,1524.38
2019-02-19T11:15:03.070Z,860.63
2019-02-19T11:16:03.461Z,1530.00
2019-02-19T11:17:03.081Z,1530.00
2019-02-19T11:18:03.795Z,1575.00
2019-02-19T11:19:03.061Z,1597.50
2019-02-19T11:20:03.060Z,1580.63
2019-02-19T11:21:03.052Z,1608.75
2019-02-19T11:22:03.061Z,1648.13
2019-02-19T11:23:03.047Z,1614.38
2019-02-19T11:24:03.059Z,1563.75
2019-02-19T11:25:03.043Z,1546.88
2019-02-19T11:26:03.040Z,1608.75
2019-02-19T11:27:03.035Z,1620.00
2019-02-19T11:28:03.040Z,1648.13
2019-02-19T11:29:03.028Z,1732.50
2019-02-19T11:30:03.025Z,1732.50
2019-02-19T11:31:03.023Z,1732.50
2019-02-19T11:32:03.024Z,1726.88
2019-02-19T11:33:03.016Z,1698.75
2019-02-19T11:34:03.013Z,1653.75
2019-02-19T11:35:03.010Z,1659.38
2019-02-19T11:36:03.008Z,1659.38
2019-02-19T11:37:03.004Z,1636.88
2019-02-19T11:38:03.001Z,1636.88
2019-02-19T11:39:02.998Z,1580.63
2019-02-19T11:40:02.994Z,748.13
2019-02-19T11:41:02.992Z,517.50
2019-02-19T11:42:04.791Z,528.75
2019-02-19T11:43:02.984Z,568.13
2019-02-19T11:44:02.979Z,849.38
2019-02-19T11:45:02.976Z,528.75
2019-02-19T11:46:02.974Z,466.88
2019-02-19T11:47:02.969Z,444.38
2019-02-19T11:48:02.962Z,450.00
2019-02-19T11:49:02.956Z,393.75
2019-02-19T11:50:02.951Z,438.75
2019-02-19T11:51:02.946Z,1614.38
2019-02-19T11:52:02.939Z,1614.38
2019-02-19T11:53:02.932Z,1479.38
2019-02-19T11:54:02.929Z,697.50
2019-02-19T11:55:02.924Z,641.25
2019-02-19T11:56:02.916Z,1704.38
2019-02-19T11:57:02.918Z,601.88
2019-02-19T11:58:02.916Z,1068.75
2019-02-19T11:59:02.899Z,1558.13
2019-02-19T12:00:02.892Z,1575.00
2019-02-19T12:01:02.886Z,1569.38
2019-02-19T12:02:02.895Z,1704.38
2019-02-19T12:03:02.882Z,1631.25
2019-02-19T12:04:02.871Z,1141.88
2019-02-19T12:05:02.864Z,590.63
2019-02-19T12:06:02.860Z,1530.00
2019-02-19T12:07:02.863Z,708.75
2019-02-19T12:08:02.846Z,421.88
2019-02-19T12:09:02.841Z,556.88
2019-02-19T12:10:02.841Z,326.25
2019-02-19T12:11:02.836Z,511.88
2019-02-19T12:12:02.823Z,466.88
2019-02-19T12:13:02.816Z,506.25
2019-02-19T12:14:02.814Z,545.63
2019-02-19T12:15:02.805Z,618.75
2019-02-19T12:16:02.797Z,843.75
2019-02-19T12:17:02.789Z,883.13
2019-02-19T12:18:02.784Z,855.00
2019-02-19T12:19:02.800Z,860.63
2019-02-19T12:20:02.771Z,866.25
2019-02-19T12:21:02.765Z,849.38
2019-02-19T12:22:02.760Z,855.00
2019-02-19T12:23:02.756Z,832.50
2019-02-19T12:24:02.749Z,860.63
2019-02-19T12:25:02.747Z,826.88
2019-02-19T12:26:02.743Z,793.13
2019-02-19T12:27:02.736Z,731.25
2019-02-19T12:28:02.731Z,798.75
2019-02-19T12:29:02.728Z,748.13
2019-02-19T12:30:02.728Z,686.25
2019-02-19T12:31:02.730Z,725.63
2019-02-19T12:32:02.716Z,748.13
2019-02-19T12:33:02.713Z,1040.63
2019-02-19T12:34:02.748Z,838.13
2019-02-19T12:35:02.706Z,967.50
2019-02-19T12:36:02.704Z,691.88
2019-02-19T12:37:02.699Z,551.25
2019-02-19T12:38:02.696Z,579.38
2019-02-19T12:39:02.708Z,849.38
2019-02-19T12:40:02.689Z,916.88
2019-02-19T12:41:02.688Z,877.50
2019-02-19T12:42:02.682Z,483.75
2019-02-19T12:43:02.679Z,652.50
2019-02-19T12:44:02.675Z,405.00
2019-02-19T12:45:02.671Z,382.50
2019-02-19T12:46:02.677Z,635.63
2019-02-19T12:47:02.663Z,360.00
2019-02-19T12:48:02.659Z,371.25
2019-02-19T12:49:02.654Z,343.13
2019-02-19T12:50:02.650Z,382.50
2019-02-19T12:51:02.642Z,388.13